sim
Sign-in with your pilot id or email,
or register
Callsign
Passwort

Schedule Details

Flight Number: DLH2135 (1)
Departure: Munster Osnabruck International -?Airport (EDDG) at 08:00
Arrival: Munich Airport (EDDM) at 09:05
Route: Lufthansa Passenger Schedule. Enter filed route here before submitting Pirep.

Weather Information
Getting current METAR information for EDDG 241950Z 11004KT 050V180 CAVOK 14/08 Q0999 NOSIG
Getting current METAR information for EDDM 241950Z 06005KT CAVOK 16/14 Q1003 NOSIG

Schedule Frequency

Route Map